Time;durP1;ratioP1;P1;durP2;ratioP2;P2;SDS_P1;SDS_P2;PMS_P1;PMS_P2;Temp;Humidity;BMP_temperature;BMP_pressure;BME280_temperature;BME280_humidity;BME280_pressure;Samples;Min_cycle;Max_cycle;Signal;HPM_P1;HPM_P2
2022/10/01 00:01:13;;;;;;;6.10;0.60;;;;;;;16.79;100.00;99515.69;7383274;19;20007;-67
2022/10/01 00:03:42;;;;;;;7.72;0.95;;;;;;;16.78;100.00;99511.41;7386329;19;20035;-67
2022/10/01 00:06:16;;;;;;;7.53;0.80;;;;;;;16.78;100.00;99519.38;7386122;19;20014;-68
2022/10/01 00:08:47;;;;;;;10.05;0.98;;;;;;;16.75;100.00;99518.00;7384013;19;20015;-69
2022/10/01 00:11:23;;;;;;;4.72;0.85;;;;;;;16.75;100.00;99525.16;7387055;19;20014;-68
2022/10/01 00:13:53;;;;;;;6.35;0.90;;;;;;;16.74;100.00;99526.19;7382349;19;20007;-68
2022/10/01 00:16:26;;;;;;;6.40;0.75;;;;;;;16.71;100.00;99526.63;7383502;19;20022;-68
2022/10/01 00:18:54;;;;;;;3.42;0.95;;;;;;;16.70;100.00;99540.94;7378767;19;20897;-67
2022/10/01 00:21:33;;;;;;;8.60;0.93;;;;;;;16.68;100.00;99538.50;7383102;19;21591;-68
2022/10/01 00:24:03;;;;;;;9.75;1.35;;;;;;;16.66;100.00;99541.38;7382278;19;20033;-67
2022/10/01 00:26:33;;;;;;;5.38;1.00;;;;;;;16.66;100.00;99548.53;7386503;19;20349;-68
2022/10/01 00:29:03;;;;;;;6.60;0.98;;;;;;;16.67;100.00;99548.31;7383158;19;20010;-67
2022/10/01 00:31:30;;;;;;;5.15;1.15;;;;;;;16.68;100.00;99555.25;7385189;19;20051;-68
2022/10/01 00:33:59;;;;;;;6.28;1.00;;;;;;;16.70;100.00;99551.56;7385023;19;20031;-67
2022/10/01 00:36:26;;;;;;;5.55;1.25;;;;;;;16.69;100.00;99548.09;7386559;19;20015;-69
2022/10/01 00:38:59;;;;;;;9.60;1.08;;;;;;;16.70;100.00;99548.91;7381195;19;20487;-67
2022/10/01 00:41:31;;;;;;;5.88;0.80;;;;;;;16.67;100.00;99555.47;7385798;19;20019;-67
2022/10/01 00:44:02;;;;;;;5.30;0.90;;;;;;;16.63;100.00;99557.78;7383207;19;20014;-67
2022/10/01 00:46:42;;;;;;;8.32;1.50;;;;;;;16.61;100.00;99564.31;7384792;19;20042;-67
2022/10/01 00:49:17;;;;;;;9.05;1.05;;;;;;;16.58;100.00;99565.59;7383980;19;20042;-67
2022/10/01 00:51:49;;;;;;;13.98;1.50;;;;;;;16.57;100.00;99571.09;7384516;19;20038;-67
2022/10/01 00:54:22;;;;;;;7.35;1.08;;;;;;;16.57;100.00;99569.25;7380946;19;20019;-67
2022/10/01 00:56:54;;;;;;;10.25;1.35;;;;;;;16.57;100.00;99571.09;7383681;19;20042;-68
2022/10/01 00:59:21;;;;;;;9.57;0.90;;;;;;;16.56;100.00;99580.91;7382187;19;20018;-68
2022/10/01 01:01:48;;;;;;;6.90;1.13;;;;;;;16.55;100.00;99579.31;7382480;19;20018;-67
2022/10/01 01:04:17;;;;;;;18.00;3.10;;;;;;;16.52;100.00;99578.91;7380687;19;20014;-67
2022/10/01 01:06:56;;;;;;;9.13;1.00;;;;;;;16.51;100.00;99580.75;7383880;19;20034;-67
2022/10/01 01:09:29;;;;;;;11.23;1.52;;;;;;;16.50;100.00;99581.00;7381741;19;20022;-67
2022/10/01 01:12:27;;;;;;;5.65;1.00;;;;;;;16.49;100.00;99580.19;7391574;19;20034;-67
2022/10/01 01:15:16;;;;;;;9.15;1.48;;;;;;;16.45;100.00;99573.72;7388042;19;20408;-68
2022/10/01 01:18:08;;;;;;;12.60;1.15;;;;;;;16.43;100.00;99578.41;7389817;19;20044;-68
2022/10/01 01:21:26;;;;;;;14.13;1.25;;;;;;;16.43;100.00;99588.22;7390725;19;20010;-67
2022/10/01 01:24:02;;;;;;;10.60;1.27;;;;;;;16.43;100.00;99593.53;7388562;19;20015;-67
2022/10/01 01:26:48;;;;;;;8.00;1.00;;;;;;;16.42;100.00;99592.72;7391348;19;20336;-68
2022/10/01 01:29:38;;;;;;;11.85;1.63;;;;;;;16.39;100.00;99595.81;7388078;19;20018;-67
2022/10/01 01:32:13;;;;;;;9.68;1.13;;;;;;;16.35;100.00;99602.63;7389615;19;20487;-67
2022/10/01 01:34:46;;;;;;;16.63;1.92;;;;;;;16.33;100.00;99607.31;7390814;19;20958;-67
2022/10/01 01:37:18;;;;;;;8.85;1.00;;;;;;;16.33;100.00;99612.63;7389655;19;20014;-67
2022/10/01 01:39:49;;;;;;;11.57;1.73;;;;;;;16.32;100.00;99616.31;7379418;19;20014;-68
2022/10/01 01:42:28;;;;;;;12.38;1.63;;;;;;;16.32;100.00;99615.50;7390577;19;20014;-68
2022/10/01 01:44:58;;;;;;;7.32;0.88;;;;;;;16.31;100.00;99617.34;7389014;19;20015;-67
2022/10/01 01:47:29;;;;;;;6.50;0.88;;;;;;;16.29;100.00;99627.38;7390543;19;20558;-67
2022/10/01 01:49:57;;;;;;;12.85;1.42;;;;;;;16.29;100.00;99618.59;7388430;19;20591;-68
2022/10/01 01:52:24;;;;;;;15.88;1.98;;;;;;;16.28;100.00;99633.72;7388281;19;20014;-69
2022/10/01 01:54:51;;;;;;;11.20;1.05;;;;;;;16.28;100.00;99639.03;7386919;19;20123;-67
2022/10/01 01:57:19;;;;;;;11.65;1.15;;;;;;;16.29;100.00;99639.84;7389473;19;20062;-67
2022/10/01 01:59:46;;;;;;;7.00;1.02;;;;;;;16.27;100.00;99640.06;7387369;19;20038;-68
2022/10/01 02:02:22;;;;;;;14.65;1.30;;;;;;;16.25;100.00;99653.53;7389830;19;20347;-68
2022/10/01 02:05:17;;;;;;;17.30;1.92;;;;;;;16.19;100.00;99643.81;7389039;19;20031;-67
2022/10/01 02:08:15;;;;;;;15.85;1.58;;;;;;;16.19;100.00;99648.31;7388767;19;20026;-67
2022/10/01 02:10:42;;;;;;;14.15;1.58;;;;;;;16.17;100.00;99648.53;7387606;19;20345;-66
2022/10/01 02:13:24;;;;;;;11.45;1.00;;;;;;;16.17;100.00;99658.31;7389117;19;20014;-67
2022/10/01 02:16:29;;;;;;;9.63;1.02;;;;;;;16.12;100.00;99650.19;7386633;19;20046;-67
2022/10/01 02:19:17;;;;;;;14.55;1.42;;;;;;;16.03;100.00;99643.56;7382433;19;20015;-67
2022/10/01 02:21:50;;;;;;;10.75;1.25;;;;;;;16.05;100.00;99649.47;7389288;19;20015;-67
2022/10/01 02:24:56;;;;;;;13.45;1.48;;;;;;;16.04;100.00;99653.97;7387787;19;20011;-66
2022/10/01 02:27:29;;;;;;;10.25;1.55;;;;;;;16.02;100.00;99652.53;7389324;19;20022;-67
2022/10/01 02:29:58;;;;;;;;;;;;;;;16.04;100.00;99655.78;7385447;19;20035;-67
2022/10/01 02:32:29;;;;;;;10.57;2.10;;;;;;;16.01;100.00;99654.38;7389277;19;19914;-68
2022/10/01 02:34:57;;;;;;;16.85;1.23;;;;;;;16.02;100.00;99655.19;7386048;19;20014;-66
2022/10/01 02:37:25;;;;;;;9.85;1.35;;;;;;;16.03;100.00;99648.84;7390343;19;20015;-67
2022/10/01 02:39:55;;;;;;;18.23;2.03;;;;;;;15.96;100.00;99661.34;7384312;19;20015;-67
2022/10/01 02:42:26;;;;;;;17.63;2.35;;;;;;;15.93;100.00;99661.81;7386933;19;20351;-68
2022/10/01 02:44:55;;;;;;;14.93;1.23;;;;;;;15.92;100.00;99653.03;7384578;19;20019;-68
2022/10/01 02:47:33;;;;;;;14.25;1.75;;;;;;;15.89;100.00;99664.09;7387410;19;20058;-68
2022/10/01 02:50:01;;;;;;;13.07;2.13;;;;;;;15.91;100.00;99672.63;7387132;19;20029;-68
2022/10/01 02:52:53;;;;;;;13.20;1.45;;;;;;;15.94;100.00;99677.50;7387923;19;20372;-67
2022/10/01 02:55:34;;;;;;;8.25;1.02;;;;;;;15.93;100.00;99673.22;7382157;19;20018;-67
2022/10/01 02:58:01;;;;;;;14.20;1.70;;;;;;;15.92;100.00;99676.09;7387586;19;20693;-67
2022/10/01 03:00:28;;;;;;;14.70;1.20;;;;;;;15.91;100.00;99669.97;7386226;19;20018;-67
2022/10/01 03:02:55;;;;;;;11.95;1.23;;;;;;;15.90;100.00;99678.16;7387897;19;21173;-68
2022/10/01 03:05:22;;;;;;;12.98;1.85;;;;;;;15.88;100.00;99678.38;7385635;19;20019;-68
2022/10/01 03:07:49;;;;;;;10.85;1.80;;;;;;;15.88;100.00;99683.69;7388135;19;20011;-67
2022/10/01 03:10:16;;;;;;;14.77;1.67;;;;;;;15.89;100.00;99684.50;7384570;19;20011;-68
2022/10/01 03:12:45;;;;;;;10.75;1.13;;;;;;;15.85;100.00;99686.75;7387643;19;20111;-68
2022/10/01 03:15:14;;;;;;;9.55;1.23;;;;;;;15.83;100.00;99689.63;7385690;19;20379;-67
2022/10/01 03:17:41;;;;;;;13.02;1.35;;;;;;;15.80;99.91;99700.66;7386107;19;20047;-66
2022/10/01 03:20:09;;;;;;;19.85;2.38;;;;;;;15.77;99.78;99706.41;7385203;19;20101;-68
2022/10/01 03:22:36;;;;;;;19.08;1.70;;;;;;;15.74;99.63;99709.50;7387252;19;20033;-68
2022/10/01 03:25:03;;;;;;;16.27;1.20;;;;;;;15.75;99.79;99713.75;7385020;19;20014;-67
2022/10/01 03:27:30;;;;;;;13.00;1.40;;;;;;;15.76;99.72;99717.22;7387486;19;20014;-67
2022/10/01 03:29:57;;;;;;;12.32;1.10;;;;;;;15.75;99.79;99713.75;7385785;19;20474;-67
2022/10/01 03:32:24;;;;;;;10.98;1.60;;;;;;;15.74;99.68;99712.16;7387269;19;20115;-68
2022/10/01 03:34:51;;;;;;;15.52;2.70;;;;;;;15.72;99.18;99721.31;7383470;19;20014;-67
2022/10/01 03:37:17;;;;;;;18.33;1.65;;;;;;;15.71;99.02;99725.00;7387432;19;20475;-67
2022/10/01 03:39:44;;;;;;;18.75;1.58;;;;;;;15.69;98.91;99738.50;7382782;19;20439;-67
2022/10/01 03:42:11;;;;;;;11.93;0.90;;;;;;;15.68;99.05;99742.16;7385885;19;20336;-68
2022/10/01 03:44:38;;;;;;;13.20;1.42;;;;;;;15.72;99.01;99747.84;7385785;19;20021;-67
2022/10/01 03:47:05;;;;;;;11.00;1.30;;;;;;;15.71;98.97;99756.81;7387240;19;20010;-67
2022/10/01 03:49:33;;;;;;;13.65;1.70;;;;;;;15.68;98.46;99770.53;7385196;19;20025;-67
2022/10/01 03:52:01;;;;;;;13.38;1.30;;;;;;;15.65;98.37;99765.63;7387643;19;20467;-68
2022/10/01 03:54:30;;;;;;;19.27;1.65;;;;;;;15.60;98.36;99763.59;7384249;19;20691;-67
2022/10/01 03:56:57;;;;;;;17.27;1.65;;;;;;;15.60;98.63;99766.25;7387938;19;20570;-66
2022/10/01 03:59:26;;;;;;;11.38;1.15;;;;;;;15.59;98.45;99785.06;7383673;19;20011;-67
2022/10/01 04:01:53;;;;;;;8.77;1.08;;;;;;;15.58;98.24;99788.72;7385860;19;20014;-68
2022/10/01 04:04:20;;;;;;;13.30;1.00;;;;;;;15.56;98.26;99782.81;7381942;19;20018;-68
2022/10/01 04:06:46;;;;;;;21.35;1.83;;;;;;;15.56;98.60;99782.81;7385011;19;20018;-67
2022/10/01 04:09:13;;;;;;;15.60;1.40;;;;;;;15.54;98.82;99783.03;7381962;19;20015;-67
2022/10/01 04:11:40;;;;;;;13.93;1.20;;;;;;;15.54;98.83;99796.31;7387672;19;20015;-67
2022/10/01 04:14:07;;;;;;;13.80;1.05;;;;;;;15.55;98.67;99805.03;7382788;19;20527;-67
2022/10/01 04:16:34;;;;;;;11.63;1.00;;;;;;;15.52;98.26;99805.47;7384613;19;20432;-68
2022/10/01 04:19:03;;;;;;;12.10;1.02;;;;;;;15.52;98.40;99810.78;7379427;19;20504;-68
2022/10/01 04:21:30;;;;;;;13.27;2.53;;;;;;;15.52;98.51;99818.72;7385849;19;20119;-68
2022/10/01 04:23:58;;;;;;;17.77;1.80;;;;;;;15.54;98.52;99816.69;7384628;19;20029;-67
2022/10/01 04:26:25;;;;;;;10.35;1.08;;;;;;;15.51;98.01;99817.91;7383802;19;20007;-67
2022/10/01 04:28:52;;;;;;;10.90;1.05;;;;;;;15.46;97.07;99827.47;7384353;19;20030;-67
2022/10/01 04:31:25;;;;;;;9.98;0.90;;;;;;;15.40;96.85;99823.81;7385835;19;20045;-67
2022/10/01 04:33:54;;;;;;;12.88;1.15;;;;;;;15.38;96.93;99824.06;7385125;19;20007;-68
2022/10/01 04:36:21;;;;;;;51.33;11.93;;;;;;;15.40;97.08;99821.19;7384302;19;20018;-68
2022/10/01 04:38:51;;;;;;;15.00;1.73;;;;;;;15.43;97.53;99830.56;7383517;19;20043;-67
2022/10/01 04:41:25;;;;;;;16.70;0.75;;;;;;;15.41;97.26;99833.41;7385326;19;20668;-67
2022/10/01 04:43:51;;;;;;;15.02;0.98;;;;;;;15.39;96.65;99830.16;7384917;19;20010;-68
2022/10/01 04:46:19;;;;;;;13.63;1.08;;;;;;;15.35;96.92;99824.47;7389321;19;20011;-68
2022/10/01 04:48:48;;;;;;;15.10;0.80;;;;;;;15.35;96.76;99834.25;7392182;19;20018;-68
2022/10/01 04:51:15;;;;;;;13.02;1.27;;;;;;;15.32;96.73;99840.78;7390329;19;20862;-66
2022/10/01 04:53:42;;;;;;;9.02;1.20;;;;;;;15.29;96.73;99848.31;7391763;19;20038;-67
2022/10/01 04:56:09;;;;;;;11.57;0.73;;;;;;;15.29;97.03;99853.63;7391633;19;20030;-67
2022/10/01 04:58:37;;;;;;;11.63;1.00;;;;;;;15.29;96.63;99861.56;7391699;19;20010;-67
2022/10/01 05:01:06;;;;;;;16.60;0.85;;;;;;;15.28;96.54;99865.28;7390887;19;20018;-67
2022/10/01 05:03:33;;;;;;;15.10;1.17;;;;;;;15.27;96.28;99872.41;7390182;19;20022;-67
2022/10/01 05:06:00;;;;;;;18.65;0.82;;;;;;;15.25;96.25;99873.63;7391223;19;20018;-68
2022/10/01 05:08:27;;;;;;;15.40;1.30;;;;;;;15.26;96.22;99873.41;7390716;19;20669;-68
2022/10/01 05:10:54;;;;;;;15.20;0.85;;;;;;;15.28;96.34;99870.56;7389775;19;20037;-67
2022/10/01 05:13:21;;;;;;;9.98;0.73;;;;;;;15.28;95.97;99875.88;7392702;19;20015;-67
2022/10/01 05:15:50;;;;;;;14.18;0.98;;;;;;;15.25;95.74;99879.75;7389806;19;20629;-67
2022/10/01 05:18:18;;;;;;;15.70;0.75;;;;;;;15.20;95.25;99878.72;7390106;19;20018;-68
2022/10/01 05:20:51;;;;;;;13.15;1.20;;;;;;;15.18;95.15;99886.09;7390246;19;20022;-67
2022/10/01 05:23:18;;;;;;;6.40;0.70;;;;;;;15.18;95.49;99881.59;7391006;19;20014;-68
2022/10/01 05:25:45;;;;;;;14.10;1.40;;;;;;;15.19;95.75;99898.28;7389160;19;20022;-68
2022/10/01 05:28:12;;;;;;;12.27;0.98;;;;;;;15.16;95.58;99904.00;7391160;19;20700;-68
2022/10/01 05:30:52;;;;;;;11.13;0.80;;;;;;;15.16;95.80;99909.31;7390247;19;20479;-68
2022/10/01 05:33:22;;;;;;;11.23;0.77;;;;;;;15.17;95.93;99905.66;7390273;19;20038;-68
2022/10/01 05:35:48;;;;;;;15.20;0.65;;;;;;;15.16;96.32;99911.97;7389030;19;20018;-69
2022/10/01 05:38:15;;;;;;;12.75;1.08;;;;;;;15.14;95.80;99919.28;7388918;19;20038;-67
2022/10/01 05:40:50;;;;;;;9.35;0.88;;;;;;;15.14;95.83;99925.41;7386432;19;20471;-68
2022/10/01 05:43:17;;;;;;;11.10;0.73;;;;;;;15.11;95.33;99938.25;7389911;19;20006;-67
2022/10/01 05:45:44;;;;;;;12.90;0.77;;;;;;;15.11;95.46;99939.06;7387686;19;20014;-66
2022/10/01 05:48:11;;;;;;;11.73;0.75;;;;;;;15.11;95.70;99941.72;7390555;19;20014;-67
2022/10/01 05:50:39;;;;;;;11.77;0.57;;;;;;;15.11;95.70;99946.22;7388059;19;20019;-67
2022/10/01 05:53:08;;;;;;;14.20;0.88;;;;;;;15.09;96.22;99946.41;7388145;19;20652;-68
2022/10/01 05:55:35;;;;;;;16.02;0.90;;;;;;;15.09;96.20;99945.59;7387609;19;20014;-68
2022/10/01 05:58:09;;;;;;;14.00;1.30;;;;;;;15.08;96.08;99952.75;7387815;19;20015;-66
2022/10/01 06:00:37;;;;;;;13.07;1.00;;;;;;;15.11;96.16;99956.81;7386992;19;20015;-69
2022/10/01 06:03:05;;;;;;;15.18;0.80;;;;;;;15.07;95.90;99966.19;7389964;19;20014;-68
2022/10/01 06:05:33;;;;;;;13.45;0.80;;;;;;;15.04;95.47;99959.44;7388740;19;20007;-68
2022/10/01 06:08:03;;;;;;;21.25;1.17;;;;;;;15.01;95.35;99969.66;7390523;19;20022;-67
2022/10/01 06:10:30;;;;;;;12.93;0.70;;;;;;;14.97;95.57;99967.41;7387111;19;20014;-67
2022/10/01 06:13:00;;;;;;;12.57;1.40;;;;;;;14.95;95.97;99974.75;7389916;19;20018;-67
2022/10/01 06:15:28;;;;;;;11.45;1.25;;;;;;;14.98;96.29;99976.97;7387351;19;20037;-67
2022/10/01 06:17:55;;;;;;;16.85;0.82;;;;;;;15.02;96.45;99981.88;7390149;19;20014;-69
2022/10/01 06:20:22;;;;;;;9.95;0.80;;;;;;;15.01;96.21;99989.00;7385079;19;20015;-67
2022/10/01 06:22:55;;;;;;;15.95;1.20;;;;;;;15.01;96.22;99990.84;7388335;19;20020;-68
2022/10/01 06:25:22;;;;;;;16.30;1.35;;;;;;;15.02;96.28;99992.47;7386217;19;20002;-68
2022/10/01 06:27:55;;;;;;;51.40;8.43;;;;;;;15.00;96.36;99997.97;7387439;19;20513;-67
2022/10/01 06:30:25;;;;;;;14.73;1.20;;;;;;;15.02;96.84;99993.31;7386082;19;20003;-67
2022/10/01 06:33:04;;;;;;;18.42;1.00;;;;;;;15.03;96.87;100007.38;7385854;19;20039;-68
2022/10/01 06:35:33;;;;;;;18.23;0.90;;;;;;;15.02;97.05;100013.69;7388246;19;20014;-66
2022/10/01 06:38:01;;;;;;;20.02;2.03;;;;;;;15.04;96.75;100014.28;7385872;19;20042;-69
2022/10/01 06:40:31;;;;;;;19.00;0.90;;;;;;;14.99;96.75;100015.69;7385419;19;20387;-68
2022/10/01 06:42:58;;;;;;;12.90;1.52;;;;;;;15.01;96.97;100023.44;7385523;19;20015;-67
2022/10/01 06:45:25;;;;;;;20.45;0.95;;;;;;;15.05;97.40;100032.63;7388583;19;20038;-68
2022/10/01 06:47:58;;;;;;;17.23;1.45;;;;;;;15.03;97.16;100024.09;7386638;19;20014;-68
2022/10/01 06:50:25;;;;;;;13.13;0.70;;;;;;;15.03;96.88;100032.03;7385288;19;20670;-68
2022/10/01 06:52:52;;;;;;;17.88;2.70;;;;;;;15.04;96.99;100033.63;7389471;19;20644;-68
2022/10/01 06:55:30;;;;;;;15.20;1.02;;;;;;;15.05;96.82;100042.41;7385547;19;20042;-67
2022/10/01 06:58:02;;;;;;;15.20;0.98;;;;;;;15.03;96.91;100047.94;7387962;19;20464;-68
2022/10/01 07:00:32;;;;;;;24.33;3.30;;;;;;;15.02;96.79;100053.41;7383727;19;20027;-68
2022/10/01 07:02:59;;;;;;;16.00;1.33;;;;;;;15.06;97.22;100055.47;7385388;19;20050;-68
2022/10/01 07:05:27;;;;;;;15.73;1.02;;;;;;;15.09;96.78;100063.00;7386326;19;20843;-67
2022/10/01 07:07:53;;;;;;;14.43;1.10;;;;;;;15.10;96.79;100058.50;7385820;19;20411;-67
2022/10/01 07:10:22;;;;;;;12.73;0.80;;;;;;;15.09;96.56;100067.47;7385131;19;20403;-67
2022/10/01 07:12:49;;;;;;;15.88;1.42;;;;;;;15.11;96.30;100068.09;7387124;19;20038;-69
2022/10/01 07:15:19;;;;;;;26.05;4.45;;;;;;;15.13;96.33;100074.84;7385273;19;20027;-68
2022/10/01 07:17:48;;;;;;;16.95;1.00;;;;;;;15.12;96.28;100078.50;7386223;19;20422;-67
2022/10/01 07:20:16;;;;;;;18.33;1.42;;;;;;;15.14;96.21;100078.28;7382500;19;20025;-68
2022/10/01 07:22:44;;;;;;;12.20;1.10;;;;;;;15.16;96.26;100073.63;7385943;19;20581;-67
2022/10/01 07:25:12;;;;;;;18.23;1.05;;;;;;;15.20;96.15;100075.66;7384772;19;20676;-68
2022/10/01 07:27:39;;;;;;;16.83;1.27;;;;;;;15.24;96.36;100081.38;7383717;19;20018;-67
2022/10/01 07:30:06;;;;;;;12.88;1.13;;;;;;;15.24;96.10;100084.84;7385597;19;20042;-68
2022/10/01 07:32:34;;;;;;;16.35;1.27;;;;;;;15.25;96.23;100089.13;7384837;19;20015;-67
2022/10/01 07:35:01;;;;;;;14.05;1.50;;;;;;;15.30;96.13;100099.13;7385574;19;20030;-68
2022/10/01 07:37:28;;;;;;;13.85;1.23;;;;;;;15.29;95.99;100105.44;7385055;19;20454;-68
2022/10/01 07:39:54;;;;;;;22.25;1.50;;;;;;;15.29;95.98;100110.75;7383494;19;20332;-68
2022/10/01 07:42:21;;;;;;;17.95;0.80;;;;;;;15.31;96.22;100114.84;7385643;19;20454;-67
2022/10/01 07:44:48;;;;;;;15.02;1.10;;;;;;;15.31;95.73;100111.38;7385084;19;20039;-68
2022/10/01 07:47:15;;;;;;;13.38;1.50;;;;;;;15.31;95.86;100114.00;7385641;19;20041;-68
2022/10/01 07:49:42;;;;;;;20.58;1.95;;;;;;;15.37;96.39;100118.53;7384584;19;20034;-68
2022/10/01 07:52:08;;;;;;;25.00;1.60;;;;;;;15.40;96.66;100123.41;7387696;19;20047;-68
2022/10/01 07:54:39;;;;;;;14.15;1.30;;;;;;;15.40;96.07;100131.34;7383450;19;20476;-68
2022/10/01 07:57:05;;;;;;;18.88;0.90;;;;;;;15.43;95.55;100130.16;7385867;19;20010;-67
2022/10/01 07:59:32;;;;;;;12.35;1.25;;;;;;;15.44;95.32;100135.25;7384250;19;20380;-68
2022/10/01 08:01:59;;;;;;;17.95;1.45;;;;;;;15.49;95.41;100137.31;7384925;19;20011;-69
2022/10/01 08:07:11;;;;;;;13.52;1.00;;;;;;;15.60;95.88;100140.19;7386094;19;20010;-68
2022/10/01 08:09:38;;;;;;;14.93;1.67;;;;;;;15.66;95.94;100151.84;7383796;19;20014;-67
2022/10/01 08:12:05;;;;;;;13.77;1.58;;;;;;;15.69;95.56;100154.09;7382944;19;20014;-67
2022/10/01 08:14:32;;;;;;;15.05;0.80;;;;;;;15.69;94.62;100148.78;7384930;19;20010;-68
2022/10/01 08:16:59;;;;;;;16.80;1.35;;;;;;;15.74;94.72;100162.25;7385502;19;20022;-67
2022/10/01 08:19:26;;;;;;;10.52;0.90;;;;;;;15.77;94.24;100162.66;7382303;19;20018;-68
2022/10/01 08:22:04;;;;;;;24.50;2.00;;;;;;;15.82;94.93;100164.72;7391612;19;20014;-67
2022/10/01 08:24:33;;;;;;;17.20;1.02;;;;;;;15.85;94.86;100166.94;7390876;19;20042;-68
2022/10/01 08:27:00;;;;;;;13.32;1.25;;;;;;;15.90;93.85;100169.00;7392403;19;20110;-68
2022/10/01 08:29:27;;;;;;;17.05;1.00;;;;;;;15.90;93.50;100177.75;7391080;19;20688;-68
2022/10/01 08:31:55;;;;;;;13.15;0.80;;;;;;;15.91;92.88;100171.44;7391861;19;20010;-68
2022/10/01 08:34:22;;;;;;;16.63;0.95;;;;;;;15.94;93.17;100184.31;7389966;19;20007;-67
2022/10/01 08:36:53;;;;;;;15.35;1.00;;;;;;;15.96;93.38;100190.22;7392416;19;20022;-68
2022/10/01 08:39:20;;;;;;;13.73;0.90;;;;;;;15.97;92.79;100186.56;7387305;19;20015;-68
2022/10/01 08:42:07;;;;;;;12.27;1.00;;;;;;;16.01;92.23;100195.72;7391286;19;20014;-69
2022/10/01 08:44:42;;;;;;;12.13;1.13;;;;;;;16.05;92.38;100194.31;7390408;19;20053;-68
2022/10/01 08:47:16;;;;;;;14.90;1.13;;;;;;;16.06;91.64;100195.13;7392674;19;20018;-68
2022/10/01 08:49:50;;;;;;;15.10;1.83;;;;;;;16.10;91.24;100199.81;7389281;19;20017;-67
2022/10/01 08:52:24;;;;;;;13.15;1.27;;;;;;;16.16;91.45;100206.97;7389312;19;20776;-67
2022/10/01 08:54:59;;;;;;;10.05;1.20;;;;;;;16.20;91.34;100205.53;7390056;19;20014;-67
2022/10/01 08:57:29;;;;;;;11.32;0.73;;;;;;;16.24;89.90;100208.63;7391367;19;20372;-68
2022/10/01 09:00:02;;;;;;;10.85;1.10;;;;;;;16.27;88.91;100216.16;7390025;19;20034;-70
2022/10/01 09:02:32;;;;;;;10.77;0.88;;;;;;;16.30;89.50;100223.72;7389751;19;20011;-68
2022/10/01 09:05:29;;;;;;;9.10;0.70;;;;;;;16.31;89.22;100225.34;7387579;19;20541;-67
2022/10/01 09:08:42;;;;;;;9.23;0.43;;;;;;;16.31;87.80;100232.50;7391146;19;20018;-69
2022/10/01 09:11:28;;;;;;;7.03;0.50;;;;;;;16.32;86.24;100228.81;7372682;19;20474;-68
2022/10/01 09:14:03;;;;;;;11.40;0.50;;;;;;;16.34;84.99;100224.13;7385382;19;20026;-68
2022/10/01 09:16:44;;;;;;;7.75;0.50;;;;;;;16.38;84.84;100233.31;7391225;19;20034;-68
2022/10/01 09:19:42;;;;;;;13.20;0.80;;;;;;;16.44;85.89;100233.31;7387790;19;20470;-68
2022/10/01 09:23:01;;;;;;;13.13;0.90;;;;;;;16.48;85.55;100234.53;7389094;19;20085;-68
2022/10/01 09:25:29;;;;;;;14.57;2.55;;;;;;;16.50;84.18;100239.66;7383330;19;20031;-68
2022/10/01 09:28:18;;;;;;;8.63;0.60;;;;;;;16.56;84.78;100246.78;7390715;19;20042;-68
2022/10/01 09:31:09;;;;;;;9.73;0.70;;;;;;;16.60;84.82;100262.16;7385197;19;20115;-68
2022/10/01 09:33:41;;;;;;;11.23;0.60;;;;;;;16.63;83.44;100261.72;7384819;19;20018;-68
2022/10/01 09:36:17;;;;;;;11.20;1.25;;;;;;;16.67;82.90;100257.63;7390349;19;20014;-67
2022/10/01 09:38:51;;;;;;;8.82;0.47;;;;;;;16.75;82.20;100269.06;7388610;19;20018;-69
2022/10/01 09:41:18;;;;;;;7.20;0.95;;;;;;;16.84;83.24;100278.47;7388208;19;20048;-68
2022/10/01 09:43:46;;;;;;;7.97;1.40;;;;;;;16.90;84.35;100274.97;7388587;19;20134;-68
2022/10/01 09:46:16;;;;;;;9.18;1.02;;;;;;;16.94;83.29;100273.53;7387623;19;20018;-68
2022/10/01 09:48:48;;;;;;;7.30;0.60;;;;;;;16.97;82.32;100278.41;7386028;19;20035;-67
2022/10/01 09:51:36;;;;;;;9.80;0.60;;;;;;;17.01;80.97;100285.81;7390204;19;20019;-69
2022/10/01 09:54:28;;;;;;;10.40;0.90;;;;;;;17.03;79.70;100285.56;7388847;19;20018;-69
2022/10/01 09:57:39;;;;;;;9.98;0.60;;;;;;;17.04;79.03;100285.38;7390624;19;20014;-68
2022/10/01 10:00:16;;;;;;;5.50;0.50;;;;;;;17.09;79.67;100293.53;7380505;19;20060;-68
2022/10/01 10:02:45;;;;;;;9.23;0.60;;;;;;;17.09;79.07;100292.72;7317901;19;20018;-68
2022/10/01 10:05:18;;;;;;;6.72;0.60;;;;;;;17.16;79.44;100290.06;7379424;19;20022;-68
2022/10/01 10:07:49;;;;;;;9.60;1.08;;;;;;;17.21;79.59;100299.03;7382959;19;20018;-69
2022/10/01 10:10:19;;;;;;;9.38;0.77;;;;;;;17.24;78.19;100290.63;7379442;19;20507;-68
2022/10/01 10:12:57;;;;;;;7.25;0.45;;;;;;;17.27;76.37;100295.50;7380167;19;20029;-68
2022/10/01 10:15:25;;;;;;;6.95;0.50;;;;;;;17.34;77.01;100300.81;7379239;19;20041;-70
2022/10/01 10:18:07;;;;;;;13.35;0.73;;;;;;;17.40;77.68;100300.00;7381001;19;20018;-68
2022/10/01 10:20:52;;;;;;;7.03;0.57;;;;;;;17.46;77.96;100307.13;7379427;19;20546;-69
2022/10/01 10:23:27;;;;;;;8.98;0.52;;;;;;;17.47;76.77;100308.78;7380373;19;20099;-68
2022/10/01 10:26:06;;;;;;;10.10;0.30;;;;;;;17.50;76.05;100303.84;7382519;19;20134;-68
2022/10/01 10:28:44;;;;;;;9.57;0.68;;;;;;;17.53;76.51;100308.72;7378435;19;20019;-67
2022/10/01 10:31:26;;;;;;;8.68;0.60;;;;;;;17.58;77.28;100318.72;7382525;19;20010;-68
2022/10/01 10:34:07;;;;;;;9.93;1.10;;;;;;;17.63;77.69;100313.63;7381207;19;20305;-68
2022/10/01 10:36:36;;;;;;;11.55;1.15;;;;;;;17.68;77.92;100315.66;7382226;19;20877;-68
2022/10/01 10:39:13;;;;;;;13.05;0.88;;;;;;;17.71;75.86;100323.22;7377952;19;20018;-68
2022/10/01 10:41:44;;;;;;;12.98;1.00;;;;;;;17.75;74.62;100322.59;7381550;19;20656;-68
2022/10/01 10:44:18;;;;;;;13.73;1.52;;;;;;;17.80;74.52;100333.41;7377727;19;20451;-68
2022/10/01 10:46:46;;;;;;;11.85;0.82;;;;;;;17.84;74.34;100329.31;7381960;19;20503;-68
2022/10/01 10:49:30;;;;;;;7.88;1.00;;;;;;;17.95;77.95;100335.81;7380868;19;20034;-67
2022/10/01 10:51:59;;;;;;;10.75;0.90;;;;;;;17.97;75.40;100335.59;7389193;19;20582;-70
2022/10/01 10:54:39;;;;;;;17.33;2.50;;;;;;;17.95;72.79;100349.13;7385556;19;20438;-68
2022/10/01 10:57:20;;;;;;;12.85;1.40;;;;;;;17.97;73.81;100344.41;7387390;19;20316;-69
2022/10/01 11:00:00;;;;;;;10.88;0.95;;;;;;;18.01;73.54;100363.41;7383930;19;20018;-69
2022/10/01 11:02:30;;;;;;;8.98;1.50;;;;;;;18.01;72.94;100360.75;7383592;19;20019;-69
2022/10/01 11:05:15;;;;;;;14.20;1.25;;;;;;;17.99;72.00;100366.28;7385943;19;20385;-68
2022/10/01 11:07:44;;;;;;;17.77;2.30;;;;;;;18.01;72.04;100366.91;7386224;19;20399;-69
2022/10/01 11:10:26;;;;;;;4.75;0.50;;;;;;;18.04;70.10;100374.47;7375978;19;20015;-69
2022/10/01 11:13:17;;;;;;;4.73;0.50;;;;;;;18.10;69.72;100375.44;7387248;19;20018;-68
2022/10/01 11:16:12;;;;;;;9.57;0.77;;;;;;;18.14;69.81;100371.31;7382455;19;20042;-69
2022/10/01 11:19:06;;;;;;;8.43;0.52;;;;;;;18.18;69.35;100384.03;7384024;19;20007;-68
2022/10/01 11:21:40;;;;;;;7.10;0.95;;;;;;;18.23;68.74;100367.41;7384488;19;20038;-69
2022/10/01 11:24:31;;;;;;;7.82;0.70;;;;;;;18.26;68.66;100375.78;7385280;19;20028;-70
2022/10/01 11:27:14;;;;;;;4.82;0.50;;;;;;;18.32;68.54;100382.91;7387843;19;20011;-69
2022/10/01 11:30:14;;;;;;;7.78;0.80;;;;;;;18.36;66.95;100384.13;7385006;19;20326;-68
2022/10/01 11:32:44;;;;;;;6.00;0.68;;;;;;;18.41;67.02;100391.47;7385411;19;20528;-69
2022/10/01 11:35:18;;;;;;;12.98;1.48;;;;;;;18.47;68.72;100392.47;7384649;19;20007;-68
2022/10/01 11:37:53;;;;;;;7.07;0.50;;;;;;;18.48;66.42;100399.44;7386135;19;20014;-69
2022/10/01 11:40:26;;;;;;;10.48;0.60;;;;;;;18.49;66.36;100393.06;7384619;19;20030;-70
2022/10/01 11:42:56;;;;;;;;;;;;;;;18.52;66.26;100395.28;7386626;19;20384;-70
2022/10/01 11:45:30;;;;;;;5.25;0.40;;;;;;;18.50;66.43;100400.84;7385962;19;20381;-69
2022/10/01 11:48:05;;;;;;;9.77;0.80;;;;;;;18.57;70.06;100409.63;7383328;19;20462;-69
2022/10/01 11:50:41;;;;;;;11.48;0.50;;;;;;;18.54;67.20;100406.59;7384243;19;20035;-69